Flight Track Log - Related Links

Times and Time Zones

All times are in EDT time to prevent confusion due to time zone crossing. See the SWA2955 flight status page for this flight to view local times or setup timezone preferences in your user account.

Time Position Orientation Groundspeed Altitude Reporting Facility
EDT Latitude Longitude Course Direction KTS MPH feet Rate Location/Type
Sun 01:41:11 PM 28.4500 -81.3333 16° North 170 196 800  Level Orlando TRACON
Sun 01:42:18 PM 28.5000 -81.3167 16° North 201 231 3,000 2,693 Climbing Orlando TRACON
Sun 01:43:18 PM 28.5667 -81.3167 360° North 221 254 6,500 3,198 Climbing Orlando TRACON
Sun 01:45:20 PM 28.6872 -81.3378 351° North 229 264 12,700 2,736 Climbing Jacksonville Center
Sun 01:46:20 PM 28.7606 -81.3603 345° North 250 288 14,800 2,450 Climbing Jacksonville Center
Sun 01:47:20 PM 28.8483 -81.3614 359° North 281 323 17,600 2,400 Climbing Jacksonville Center
Sun 01:48:20 PM 28.9381 -81.3717 354° North 310 357 19,600 1,636 Climbing Jacksonville Center
Sun 01:49:21 PM 29.0467 -81.3819 355° North 347 399 20,900 2,000 Climbing Jacksonville Center
Sun 01:50:20 PM 29.1597 -81.3922 355° North 385 443 23,600 2,319 Climbing Jacksonville Center
Sun 01:51:20 PM 29.2767 -81.4094 353° North 409 471 25,500 2,000 Climbing Jacksonville Center
Sun 01:52:20 PM 29.4025 -81.4528 343° North 420 483 27,600 2,000 Climbing Jacksonville Center
Sun 01:53:20 PM 29.5239 -81.4844 347° North 425 489 29,500 2,050 Climbing Jacksonville Center
Sun 01:54:20 PM 29.6433 -81.5161 347° North 436 502 31,700 1,950 Climbing Jacksonville Center
Sun 01:55:20 PM 29.7625 -81.5481 347° North 436 502 33,400 1,835 Climbing Jacksonville Center
Sun 01:56:21 PM 29.8819 -81.5775 348° North 431 496 35,400 1,950 Climbing Jacksonville Center
Sun 01:57:20 PM 29.9947 -81.5975 351° North 431 496 37,300 1,412 Climbing Jacksonville Center
Sun 01:58:20 PM 30.1119 -81.6175 352° North 431 496 38,200 850 Climbing Jacksonville Center
Sun 01:59:20 PM 30.2269 -81.6378 351° North 426 490 39,000 400 Climbing Jacksonville Center
Sun 02:00:20 PM 30.3442 -81.6603 351° North 426 490 39,000  Level Jacksonville Center
Sun 02:01:20 PM 30.4672 -81.6706 356° North 431 496 39,000  Level Jacksonville Center
Sun 02:02:20 PM 30.5900 -81.6039 25° Northeast 442 509 39,000  Level Jacksonville Center
Sun 02:03:21 PM 30.7081 -81.5347 27° Northeast 459 528 39,000  Level Jacksonville Center
Sun 02:04:20 PM 30.8306 -81.4653 26° Northeast 471 542 39,000  Level Jacksonville Center
Sun 02:05:20 PM 30.9489 -81.3956 27° Northeast 476 548 39,000  Level Jacksonville Center
Sun 02:06:20 PM 31.0692 -81.3258 26° Northeast 476 548 39,000  Level Jacksonville Center
Sun 02:07:20 PM 31.1914 -81.2581 25° Northeast 476 548 39,000  Level Jacksonville Center
Sun 02:08:20 PM 31.3094 -81.1881 27° Northeast 481 554 39,000  Level Jacksonville Center
Sun 02:09:20 PM 31.4272 -81.1031 32° Northeast 486 559 39,000  Level Jacksonville Center
Sun 02:10:21 PM 31.5328 -81.0281 31° Northeast 486 559 39,000  Level Jacksonville Center
Sun 02:11:20 PM 31.6608 -80.9350 32° Northeast 492 566 39,000  Level Jacksonville Center
Sun 02:12:20 PM 31.7683 -80.8619 30° Northeast 492 566 39,000  Level Jacksonville Center
Sun 02:13:20 PM 31.8961 -80.7686 32° Northeast 492 566 39,000  Level Jacksonville Center
Sun 02:14:20 PM 32.0136 -80.6850 31° Northeast 492 566 39,000  Level Jacksonville Center
Sun 02:15:20 PM 32.1189 -80.6089 31° Northeast 491 565 39,000  Level Jacksonville Center
Sun 02:16:20 PM 32.2322 -80.5250 32° Northeast 491 565 39,000  Level Jacksonville Center
Sun 02:17:20 PM 32.3475 -80.4408 32° Northeast 491 565 39,000  Level Jacksonville Center
Sun 02:18:20 PM 32.4625 -80.3542 32° Northeast 491 565 39,000  Level Jacksonville Center
Sun 02:19:20 PM 32.5797 -80.2694 31° Northeast 491 565 39,000  Level Jacksonville Center
Sun 02:20:20 PM 32.6931 -80.1872 31° Northeast 491 565 39,000  Level Jacksonville Center
Sun 02:21:21 PM 32.8181 -80.0919 33° Northeast 491 565 39,000  Level Jacksonville Center
Sun 02:22:20 PM 32.9331 -79.9969 35° Northeast 491 565 39,000  Level Jacksonville Center
Sun 02:23:20 PM 33.0411 -79.8942 39° Northeast 491 565 39,000  Level Jacksonville Center
Sun 02:24:21 PM 33.1472 -79.7964 38° Northeast 496 571 39,000  Level Jacksonville Center
Sun 02:25:20 PM 33.2531 -79.6883 40° Northeast 491 565 39,000  Level Jacksonville Center
Sun 02:26:20 PM 33.3592 -79.5878 38° Northeast 486 559 39,000  Level Jacksonville Center
Sun 02:27:20 PM 33.4650 -79.4867 39° Northeast 486 559 39,000  Level Jacksonville Center
Sun 02:28:21 PM 33.5706 -79.3778 41° Northeast 486 559 39,000  Level Jacksonville Center
Sun 02:29:20 PM 33.6761 -79.2764 39° Northeast 486 559 39,000  Level Jacksonville Center
Sun 02:31:29 PM 33.8900 -79.0639 39° Northeast 477 549 39,000  Level Washington Center
Sun 02:32:29 PM 33.9950 -78.9581 40° Northeast 490 564 39,000  Level Washington Center
Sun 02:33:29 PM 34.1067 -78.8522 38° Northeast 496 571 39,000  Level Washington Center
Sun 02:34:29 PM 34.2222 -78.7364 40° Northeast 496 571 39,000  Level Washington Center
Sun 02:35:29 PM 34.3317 -78.6250 40° Northeast 496 571 39,000  Level Washington Center
Sun 02:36:29 PM 34.4364 -78.5206 39° Northeast 491 565 39,000  Level Washington Center
Sun 02:37:29 PM 34.5261 -78.4306 40° Northeast 491 565 39,000  Level Washington Center
Sun 02:38:29 PM 34.6567 -78.2986 40° Northeast 498 573 39,000  Level Washington Center
Sun 02:39:29 PM 34.7633 -78.1883 40° Northeast 498 573 39,000  Level Washington Center
Sun 02:40:29 PM 34.8617 -78.0828 41° Northeast 503 579 39,000  Level Washington Center
Sun 02:41:29 PM 34.9703 -77.9694 41° Northeast 508 585 39,000  Level Washington Center
Sun 02:42:29 PM 35.0808 -77.8586 39° Northeast 508 585 39,000  Level Washington Center
Sun 02:43:29 PM 35.1914 -77.7472 39° Northeast 516 594 39,000  Level Washington Center
Sun 02:44:29 PM 35.3000 -77.6306 41° Northeast 516 594 39,000  Level Washington Center
Sun 02:45:29 PM 35.4103 -77.5211 39° Northeast 516 594 39,000  Level Washington Center
Sun 02:46:29 PM 35.5286 -77.4219 34° Northeast 516 594 39,000  Level Washington Center
Sun 02:47:29 PM 35.6428 -77.3197 36° Northeast 510 587 39,000  Level Washington Center
Sun 02:48:29 PM 35.7611 -77.2225 34° Northeast 510 587 39,000  Level Washington Center
Sun 02:49:29 PM 35.8856 -77.1072 37° Northeast 505 581 39,000  Level Washington Center
Sun 02:50:29 PM 36.0017 -77.0042 36° Northeast 505 581 39,000  Level Washington Center
Sun 02:51:29 PM 36.1175 -76.9008 36° Northeast 505 581 39,000  Level Washington Center
Sun 02:52:29 PM 36.2314 -76.7969 36° Northeast 510 587 39,000  Level Washington Center
Sun 02:53:29 PM 36.3514 -76.6906 36° Northeast 515 593 39,000  Level Washington Center
Sun 02:54:29 PM 36.4669 -76.5889 35° Northeast 515 593 39,000  Level Washington Center
Sun 02:55:29 PM 36.5847 -76.4817 36° Northeast 515 593 39,000  Level Washington Center
Sun 02:56:29 PM 36.7042 -76.3769 35° Northeast 520 598 39,000  Level Washington Center
Sun 02:57:29 PM 36.8069 -76.2794 37° Northeast 526 605 39,000  Level Washington Center
Sun 02:58:29 PM 36.9286 -76.1792 33° Northeast 521 600 39,000  Level Washington Center
Sun 02:59:29 PM 37.0769 -76.1072 21° North 522 601 39,000  Level Washington Center
Sun 03:00:29 PM 37.2044 -76.0378 23° Northeast 507 583 39,000  Level Washington Center
Sun 03:01:29 PM 37.3319 -75.9681 23° Northeast 501 577 39,000  Level Washington Center
Sun 03:02:29 PM 37.4617 -75.9006 22° Northeast 501 577 39,000  Level Washington Center
Sun 03:03:29 PM 37.5889 -75.8225 26° Northeast 496 571 39,000  Level Washington Center
Sun 03:04:29 PM 37.6850 -75.7492 31° Northeast 496 571 39,000  Level Washington Center
Sun 03:05:29 PM 37.8061 -75.6600 30° Northeast 503 579 39,000  Level Washington Center
Sun 03:06:29 PM 37.9353 -75.5628 31° Northeast 503 579 39,000  Level Washington Center
Sun 03:07:29 PM 38.0564 -75.4678 32° Northeast 503 579 39,000  Level Washington Center
Sun 03:08:29 PM 38.1833 -75.3911 25° Northeast 503 579 39,000  Level Washington Center
Sun 03:09:29 PM 38.3083 -75.3086 27° Northeast 498 573 39,000  Level Washington Center
Sun 03:10:29 PM 38.4353 -75.2233 28° Northeast 492 566 39,000  Level Washington Center
Sun 03:11:29 PM 38.5622 -75.1508 24° Northeast 497 572 39,000  Level Washington Center
Sun 03:12:29 PM 38.6828 -75.0519 33° Northeast 497 572 39,000  Level Washington Center
Sun 03:13:29 PM 38.7925 -74.9392 39° Northeast 502 578 39,000 -500 Level Washington Center
Sun 03:14:29 PM 38.9003 -74.8208 40° Northeast 507 583 38,000 -1,550 Descending Washington Center
Sun 03:15:29 PM 39.0078 -74.7047 40° Northeast 502 578 35,900 -2,600 Descending Washington Center
Sun 03:16:29 PM 39.1194 -74.5831 40° Northeast 509 586 32,800 -3,150 Descending Washington Center
Sun 03:17:29 PM 39.2289 -74.4661 40° Northeast 515 593 29,600 -3,149 Descending Washington Center
Sun 03:19:51 PM 39.4867 -74.1844 40° Northeast 509 586 22,200 -2,571 Descending New York Center
Sun 03:20:52 PM 39.5758 -74.0622 47° Northeast 487 560 20,900 -1,475 Descending New York Center
Sun 03:21:53 PM 39.6542 -73.9444 49° Northeast 458 527 19,200 -1,884 Descending New York Center
Sun 03:22:53 PM 39.7664 -73.8767 25° Northeast 402 463 17,100 -1,100 Descending New York Center
Sun 03:23:53 PM 39.8247 -73.7953 47° Northeast 384 442 17,000 -595 Descending New York Center
Sun 03:24:54 PM 39.9006 -73.6850 48° Northeast 371 427 15,900 -1,068 Descending New York Center
Sun 03:25:51 PM 39.9717 -73.5878 46° Northeast 366 421 14,900 -1,068 Descending New York Center
Sun 03:26:52 PM 40.0472 -73.4797 48° Northeast 366 421 13,800 -942 Descending New York Center
Sun 03:27:52 PM 40.1097 -73.3925 47° Northeast 359 413 13,000 -828 Descending New York Center
Sun 03:30:15 PM 40.2725 -73.1608 47° Northeast 345 397 11,000 -887 Descending Boston Center
Sun 03:31:15 PM 40.3208 -73.0906 48° Northeast 340 391 10,000 -1,084 Descending Boston Center
Sun 03:32:50 PM 40.4333 -72.9667 40° Northeast 274 315 8,200 -1,267 Descending New York TRACON
Sun 03:33:56 PM 40.5000 -72.9500 11° North 258 297 6,600 -1,600 Descending New York TRACON
Sun 03:34:50 PM 40.5667 -72.9333 11° North 249 287 5,000 -1,368 Descending New York TRACON
Sun 03:35:50 PM 40.6333 -72.9333 360° North 245 282 4,000 -667 Descending New York TRACON
Sun 03:36:56 PM 40.6500 -73.0167 285° West 226 260 3,600 -500 Descending New York TRACON
Sun 03:37:50 PM 40.6667 -73.0833 288° West 222 255 3,000 -684 Descending New York TRACON
Sun 03:38:50 PM 40.7000 -73.1500 303° West 191 220 2,300 -600 Descending New York TRACON
Sun 03:39:50 PM 40.7333 -73.1833 323° Northwest 146 168 1,800 -600 Descending New York TRACON
Sun 03:40:50 PM 40.7667 -73.1500 37° Northeast 141 162 1,100 -789 Descending New York TRACON
Sun 03:41:44 PM 40.7833 -73.1167 57° Northeast 142 163 300 -889 Descending New York TRACON
Sun 03:43:00 PM 40.7952 -73.1002 150° Southeast  Level Estimated

Login

Don't have an account? Register now (free) for customized features, flight alerts, and more!